createdAt,value
2022-12-26T00:00:29.764Z,98573.13
2022-12-26T00:01:33.662Z,98569.03
2022-12-26T00:02:36.507Z,98572.63
2022-12-26T00:03:39.800Z,98572.75
2022-12-26T00:05:01.088Z,98564.34
2022-12-26T00:06:03.172Z,98561.19
2022-12-26T00:07:05.972Z,98568.16
2022-12-26T00:08:08.113Z,98561.41
2022-12-26T00:09:11.137Z,98559.75
2022-12-26T00:10:12.952Z,98554.78
2022-12-26T00:11:16.234Z,98551.44
2022-12-26T00:12:18.092Z,98561.06
2022-12-26T00:13:37.651Z,98555.38
2022-12-26T00:14:43.540Z,98551.53
2022-12-26T00:15:45.457Z,98547.38
2022-12-26T00:16:48.284Z,98558.72
2022-12-26T00:17:50.127Z,98557.22
2022-12-26T00:18:54.726Z,98551.31
2022-12-26T00:19:56.825Z,98551.53
2022-12-26T00:20:59.581Z,98549.13
2022-12-26T00:22:02.374Z,98538.97
2022-12-26T00:23:04.395Z,98551.97
2022-12-26T00:24:07.699Z,98546.91
2022-12-26T00:25:09.809Z,98553.88
2022-12-26T00:26:14.105Z,98549.78
2022-12-26T00:27:16.875Z,98541.25
2022-12-26T00:28:18.861Z,98547.22
2022-12-26T00:29:22.750Z,98549.69
2022-12-26T00:30:25.502Z,98546.31
2022-12-26T00:31:30.275Z,98553.28
2022-12-26T00:32:33.063Z,98548.13
2022-12-26T00:33:35.464Z,98541.31
2022-12-26T00:34:39.596Z,98534.50
2022-12-26T00:35:41.375Z,98532.84
2022-12-26T00:36:46.027Z,98535.56
2022-12-26T00:37:47.800Z,98529.66
2022-12-26T00:38:51.894Z,98534.13
2022-12-26T00:39:53.637Z,98536.84
2022-12-26T00:40:56.393Z,98538.72
2022-12-26T00:41:59.142Z,98543.09
2022-12-26T00:43:01.119Z,98546.63
2022-12-26T00:44:04.417Z,98548.38
2022-12-26T00:45:07.143Z,98548.38
2022-12-26T00:46:10.679Z,98550.81
2022-12-26T00:47:12.820Z,98549.91
2022-12-26T00:48:15.776Z,98548.94
2022-12-26T00:49:17.593Z,98549.78
2022-12-26T00:50:21.797Z,98553.00
2022-12-26T00:51:23.897Z,98554.63
2022-12-26T00:52:26.923Z,98541.59
2022-12-26T00:53:29.165Z,98541.38
2022-12-26T00:54:32.417Z,98545.56
2022-12-26T00:55:34.228Z,98536.00
2022-12-26T00:56:37.032Z,98534.97
2022-12-26T00:57:38.852Z,98545.03
2022-12-26T00:58:45.082Z,98542.28
2022-12-26T00:59:47.273Z,98542.06
2022-12-26T01:00:50.801Z,98544.41
2022-12-26T01:01:52.677Z,98545.84
2022-12-26T01:02:55.955Z,98540.56
2022-12-26T01:03:58.597Z,98542.09
2022-12-26T01:05:01.316Z,98542.75
2022-12-26T01:06:05.004Z,98545.09
2022-12-26T01:07:07.710Z,98549.91
2022-12-26T01:08:22.509Z,98548.13
2022-12-26T01:09:27.444Z,98548.84
2022-12-26T01:10:29.201Z,98541.97
2022-12-26T01:11:43.828Z,98546.13
2022-12-26T01:12:46.621Z,98545.97
2022-12-26T01:13:49.882Z,98552.81
2022-12-26T01:14:51.658Z,98543.16
2022-12-26T01:15:54.951Z,98541.28
2022-12-26T01:16:56.814Z,98535.06
2022-12-26T01:17:59.896Z,98541.78
2022-12-26T01:19:01.917Z,98548.53
2022-12-26T01:20:06.220Z,98543.19
2022-12-26T01:21:10.839Z,98550.88
2022-12-26T01:22:13.603Z,98551.53
2022-12-26T01:23:16.297Z,98544.56
2022-12-26T01:24:19.085Z,98550.47
2022-12-26T01:25:21.269Z,98543.41
2022-12-26T01:26:24.091Z,98542.41
2022-12-26T01:27:26.537Z,98533.69
2022-12-26T01:28:29.338Z,98532.78
2022-12-26T01:29:31.210Z,98534.38
2022-12-26T01:30:33.946Z,98528.22
2022-12-26T01:31:36.250Z,98534.06
2022-12-26T01:32:39.036Z,98534.78
2022-12-26T01:33:40.835Z,98538.13
2022-12-26T01:34:44.202Z,98535.47
2022-12-26T01:35:50.503Z,98518.25
2022-12-26T01:36:55.680Z,98515.53
2022-12-26T01:37:58.671Z,98527.50
2022-12-26T01:39:01.386Z,98529.16
2022-12-26T01:40:03.913Z,98540.13
2022-12-26T01:41:20.066Z,98534.91
2022-12-26T01:42:24.123Z,98545.00
2022-12-26T01:43:27.195Z,98537.13
2022-12-26T01:45:00.477Z,98541.31
2022-12-26T01:46:02.368Z,98532.81
2022-12-26T01:47:05.337Z,98532.81
2022-12-26T01:48:15.595Z,98531.81
2022-12-26T01:49:20.632Z,98519.69
2022-12-26T01:50:30.356Z,98513.53
2022-12-26T01:51:35.307Z,98508.28
2022-12-26T01:52:42.769Z,98505.63
2022-12-26T01:53:47.894Z,98508.09
2022-12-26T01:54:51.088Z,98511.44
2022-12-26T01:55:57.773Z,98509.59
2022-12-26T01:57:01.238Z,98513.78
2022-12-26T01:58:06.852Z,98507.53
2022-12-26T01:59:12.123Z,98509.09
2022-12-26T02:00:16.151Z,98510.66
2022-12-26T02:01:19.205Z,98508.75
2022-12-26T02:02:23.064Z,98505.25
2022-12-26T02:03:43.415Z,98505.19
2022-12-26T02:05:07.579Z,98505.09
2022-12-26T02:06:11.156Z,98512.84
2022-12-26T02:07:14.410Z,98516.25
2022-12-26T02:08:19.813Z,98505.84
2022-12-26T02:09:22.655Z,98504.94
2022-12-26T02:10:26.004Z,98505.69
2022-12-26T02:11:32.921Z,98497.94
2022-12-26T02:12:39.016Z,98488.56
2022-12-26T02:13:42.497Z,98486.91
2022-12-26T02:14:44.487Z,98476.59
2022-12-26T02:15:47.668Z,98474.06
2022-12-26T02:16:49.533Z,98464.56
2022-12-26T02:17:52.412Z,98468.00
2022-12-26T02:18:55.498Z,98465.41
2022-12-26T02:20:03.956Z,98467.91
2022-12-26T02:21:25.079Z,98463.41
2022-12-26T02:22:42.087Z,98468.50
2022-12-26T02:24:08.873Z,98454.69
2022-12-26T02:25:21.941Z,98448.78
2022-12-26T02:26:54.264Z,98446.94
2022-12-26T02:28:16.060Z,98445.28
2022-12-26T02:30:00.626Z,98445.28
2022-12-26T02:31:05.524Z,98450.69
2022-12-26T02:32:13.545Z,98450.78
2022-12-26T02:33:34.640Z,98454.25
2022-12-26T02:34:42.172Z,98449.31
2022-12-26T02:35:54.852Z,98449.31
2022-12-26T02:37:21.802Z,98456.38
2022-12-26T02:38:33.094Z,98464.34
2022-12-26T02:39:51.678Z,98456.16
2022-12-26T02:40:58.012Z,98455.66
2022-12-26T02:42:07.820Z,98450.78
2022-12-26T02:43:17.913Z,98452.00
2022-12-26T02:44:40.743Z,98450.53
2022-12-26T02:46:04.316Z,98451.69
2022-12-26T02:47:13.168Z,98454.69
2022-12-26T02:48:20.588Z,98463.50
2022-12-26T02:49:29.280Z,98459.50
2022-12-26T02:50:54.356Z,98463.09
2022-12-26T02:52:21.551Z,98460.00
2022-12-26T02:53:48.439Z,98452.59
2022-12-26T02:55:14.483Z,98450.34
2022-12-26T02:56:38.665Z,98447.28
2022-12-26T02:58:05.197Z,98445.88
2022-12-26T02:59:56.245Z,98446.16
2022-12-26T03:01:18.203Z,98445.84
2022-12-26T03:02:44.285Z,98453.72
2022-12-26T03:04:05.904Z,98447.97
2022-12-26T03:05:33.978Z,98448.06
2022-12-26T03:06:56.105Z,98443.81
2022-12-26T03:08:16.763Z,98438.75
2022-12-26T03:09:38.946Z,98433.00
2022-12-26T03:10:59.094Z,98442.66
2022-12-26T03:12:22.428Z,98436.00
2022-12-26T03:13:27.411Z,98442.13
2022-12-26T03:14:30.630Z,98443.94
2022-12-26T03:15:55.200Z,98440.59
2022-12-26T03:17:19.640Z,98434.88
2022-12-26T03:18:58.684Z,98435.94
2022-12-26T03:20:01.743Z,98433.63
2022-12-26T03:21:04.073Z,98438.97
2022-12-26T03:22:27.266Z,98439.91
2022-12-26T03:23:30.828Z,98431.59
2022-12-26T03:24:59.845Z,98431.63
2022-12-26T03:26:22.834Z,98431.94
2022-12-26T03:27:25.156Z,98419.28
2022-12-26T03:28:27.316Z,98411.63
2022-12-26T03:29:47.423Z,98402.31
2022-12-26T03:30:50.482Z,98397.34
2022-12-26T03:31:52.550Z,98387.97
2022-12-26T03:32:57.018Z,98391.28
2022-12-26T03:34:21.704Z,98381.00
2022-12-26T03:35:24.986Z,98392.13
2022-12-26T03:36:35.930Z,98385.25
2022-12-26T03:37:50.226Z,98387.72
2022-12-26T03:39:07.271Z,98389.25
2022-12-26T03:40:35.561Z,98399.31
2022-12-26T03:42:10.830Z,98410.09
2022-12-26T03:43:36.616Z,98414.19
2022-12-26T03:45:02.737Z,98414.00
2022-12-26T03:46:31.833Z,98408.63
2022-12-26T03:48:03.919Z,98408.50
2022-12-26T03:49:28.079Z,98399.78
2022-12-26T03:50:53.131Z,98398.78
2022-12-26T03:52:17.917Z,98405.50
2022-12-26T03:53:41.110Z,98402.69
2022-12-26T03:55:06.082Z,98399.97
2022-12-26T03:56:32.745Z,98391.19
2022-12-26T03:57:58.208Z,98393.50
2022-12-26T03:59:23.093Z,98391.50
2022-12-26T04:00:44.036Z,98384.47
2022-12-26T04:02:05.445Z,98387.72
2022-12-26T04:03:29.210Z,98393.53
2022-12-26T04:04:56.115Z,98398.44
2022-12-26T04:06:17.524Z,98400.03
2022-12-26T04:07:56.064Z,98399.00
2022-12-26T04:09:23.144Z,98386.91
2022-12-26T04:10:46.289Z,98388.56
2022-12-26T04:12:06.566Z,98402.25
2022-12-26T04:13:34.623Z,98398.03
2022-12-26T04:14:59.207Z,98386.00
2022-12-26T04:16:24.611Z,98384.34
2022-12-26T04:17:49.305Z,98378.38
2022-12-26T04:19:15.564Z,98388.81
2022-12-26T04:20:26.528Z,98389.13
2022-12-26T04:21:52.570Z,98383.41
2022-12-26T04:23:16.800Z,98376.84
2022-12-26T04:24:44.903Z,98377.09
2022-12-26T04:26:09.234Z,98371.25
2022-12-26T04:27:32.040Z,98373.34
2022-12-26T04:28:53.941Z,98371.00
2022-12-26T04:30:14.617Z,98375.56
2022-12-26T04:31:38.920Z,98369.72
2022-12-26T04:33:02.813Z,98369.91
2022-12-26T04:34:27.521Z,98369.13
2022-12-26T04:35:51.471Z,98373.53
2022-12-26T04:37:15.487Z,98371.13
2022-12-26T04:38:40.577Z,98370.47
2022-12-26T04:40:04.300Z,98380.16
2022-12-26T04:41:25.769Z,98387.19
2022-12-26T04:42:46.487Z,98395.97
2022-12-26T04:44:09.951Z,98409.81
2022-12-26T04:45:13.347Z,98405.66
2022-12-26T04:46:16.641Z,98399.75
2022-12-26T04:47:18.532Z,98403.28
2022-12-26T04:48:38.998Z,98402.66
2022-12-26T04:50:03.692Z,98404.59
2022-12-26T04:51:08.056Z,98406.56
2022-12-26T04:52:11.681Z,98415.19
2022-12-26T04:53:15.964Z,98402.50
2022-12-26T04:54:18.412Z,98413.69
2022-12-26T04:55:21.124Z,98407.78
2022-12-26T04:56:22.905Z,98411.34
2022-12-26T04:57:25.655Z,98419.13
2022-12-26T04:58:27.498Z,98412.31
2022-12-26T04:59:30.330Z,98408.97
2022-12-26T05:00:32.154Z,98415.09
2022-12-26T05:01:53.523Z,98410.13
2022-12-26T05:03:18.563Z,98400.16
2022-12-26T05:04:39.579Z,98401.13
2022-12-26T05:06:01.164Z,98399.59
2022-12-26T05:07:24.581Z,98393.78
2022-12-26T05:08:49.525Z,98401.53
2022-12-26T05:09:54.039Z,98402.53
2022-12-26T05:10:55.805Z,98402.53
2022-12-26T05:11:58.530Z,98402.63
2022-12-26T05:13:00.698Z,98405.25
2022-12-26T05:14:03.427Z,98400.19
2022-12-26T05:15:05.992Z,98396.78
2022-12-26T05:16:26.545Z,98400.19
2022-12-26T05:17:46.833Z,98395.81
2022-12-26T05:19:07.526Z,98396.56
2022-12-26T05:20:44.987Z,98388.97
2022-12-26T05:22:06.874Z,98392.56
2022-12-26T05:23:34.219Z,98388.41
2022-12-26T05:24:56.225Z,98389.22
2022-12-26T05:26:16.555Z,98379.72
2022-12-26T05:27:37.433Z,98380.38
2022-12-26T05:28:43.133Z,98386.13
2022-12-26T05:29:44.870Z,98382.44
2022-12-26T05:30:48.099Z,98387.34
2022-12-26T05:31:49.920Z,98377.69
2022-12-26T05:33:10.194Z,98384.34
2022-12-26T05:34:15.952Z,98386.00
2022-12-26T05:35:18.493Z,98389.47
2022-12-26T05:36:25.706Z,98399.00
2022-12-26T05:37:45.942Z,98395.66
2022-12-26T05:38:50.403Z,98398.25
2022-12-26T05:39:52.158Z,98401.63
2022-12-26T05:40:55.111Z,98404.19
2022-12-26T05:41:56.846Z,98411.03
2022-12-26T05:42:59.749Z,98405.94
2022-12-26T05:44:01.581Z,98409.34
2022-12-26T05:45:05.569Z,98411.09
2022-12-26T05:46:07.428Z,98415.34
2022-12-26T05:47:10.241Z,98412.00
2022-12-26T05:48:12.844Z,98413.00
2022-12-26T05:49:15.568Z,98413.97
2022-12-26T05:50:17.611Z,98412.31
2022-12-26T05:51:20.345Z,98420.00
2022-12-26T05:52:22.082Z,98422.56
2022-12-26T05:53:25.188Z,98426.09
2022-12-26T05:54:29.262Z,98422.66
2022-12-26T05:55:31.011Z,98422.56
2022-12-26T05:56:33.953Z,98412.31
2022-12-26T05:57:38.451Z,98404.69
2022-12-26T05:58:41.787Z,98421.66
2022-12-26T05:59:46.003Z,98419.09
2022-12-26T06:00:48.792Z,98411.31
2022-12-26T06:01:50.677Z,98406.94
2022-12-26T06:02:55.262Z,98397.34
2022-12-26T06:03:59.095Z,98398.84
2022-12-26T06:05:02.024Z,98411.47
2022-12-26T06:06:05.313Z,98400.97
2022-12-26T06:07:08.055Z,98405.06
2022-12-26T06:08:09.838Z,98404.00
2022-12-26T06:09:12.710Z,98402.91
2022-12-26T06:10:15.852Z,98401.81
2022-12-26T06:11:21.941Z,98392.28
2022-12-26T06:12:24.013Z,98397.00
2022-12-26T06:13:26.844Z,98394.31
2022-12-26T06:14:28.623Z,98394.91
2022-12-26T06:15:33.127Z,98391.28
2022-12-26T06:16:35.890Z,98395.41
2022-12-26T06:17:37.770Z,98391.03
2022-12-26T06:18:40.961Z,98388.38
2022-12-26T06:19:46.895Z,98392.69
2022-12-26T06:20:49.928Z,98389.44
2022-12-26T06:21:52.004Z,98390.25
2022-12-26T06:22:54.754Z,98386.03
2022-12-26T06:23:56.569Z,98381.00
2022-12-26T06:24:59.361Z,98369.03
2022-12-26T06:26:02.619Z,98361.47
2022-12-26T06:27:07.120Z,98364.03
2022-12-26T06:28:09.804Z,98366.47
2022-12-26T06:29:12.613Z,98367.91
2022-12-26T06:30:14.413Z,98386.41
2022-12-26T06:31:21.242Z,98390.25
2022-12-26T06:32:23.656Z,98391.66
2022-12-26T06:33:26.384Z,98394.91
2022-12-26T06:34:28.220Z,98389.00
2022-12-26T06:35:31.047Z,98404.59
2022-12-26T06:36:33.761Z,98403.94
2022-12-26T06:37:35.852Z,98412.72
2022-12-26T06:38:38.718Z,98420.53
2022-12-26T06:39:40.533Z,98416.44
2022-12-26T06:40:43.854Z,98417.41
2022-12-26T06:41:47.123Z,98415.00
2022-12-26T06:42:49.865Z,98410.00
2022-12-26T06:43:52.429Z,98405.78
2022-12-26T06:44:55.129Z,98407.44
2022-12-26T06:45:57.187Z,98408.34
2022-12-26T06:47:00.327Z,98412.66
2022-12-26T06:48:02.693Z,98407.53
2022-12-26T06:49:06.553Z,98405.88
2022-12-26T06:50:09.194Z,98408.34
2022-12-26T06:51:13.730Z,98411.84
2022-12-26T06:52:15.495Z,98407.66
2022-12-26T06:53:18.652Z,98420.63
2022-12-26T06:54:21.486Z,98425.75
2022-12-26T06:55:23.339Z,98427.28
2022-12-26T06:56:27.844Z,98431.41
2022-12-26T06:57:30.978Z,98424.53
2022-12-26T06:58:33.709Z,98433.75
2022-12-26T06:59:35.658Z,98432.78
2022-12-26T07:00:38.422Z,98435.03
2022-12-26T07:01:40.481Z,98430.63
2022-12-26T07:02:43.585Z,98435.53
2022-12-26T07:03:51.699Z,98440.47
2022-12-26T07:04:54.757Z,98441.97
2022-12-26T07:05:56.606Z,98425.47
2022-12-26T07:06:59.358Z,98437.09
2022-12-26T07:08:01.131Z,98441.84
2022-12-26T07:09:06.179Z,98438.97
2022-12-26T07:10:08.658Z,98442.88
2022-12-26T07:11:14.717Z,98453.84
2022-12-26T07:12:20.726Z,98439.03
2022-12-26T07:13:25.326Z,98440.53
2022-12-26T07:14:27.134Z,98436.75
2022-12-26T07:15:30.630Z,98433.25
2022-12-26T07:16:34.569Z,98429.44
2022-12-26T07:17:38.109Z,98412.06
2022-12-26T07:18:40.354Z,98403.28
2022-12-26T07:19:43.065Z,98392.72
2022-12-26T07:20:44.935Z,98390.72
2022-12-26T07:21:48.104Z,98389.72
2022-12-26T07:22:50.306Z,98394.44
2022-12-26T07:23:54.301Z,98407.34
2022-12-26T07:24:56.198Z,98413.94
2022-12-26T07:25:59.939Z,98413.78
2022-12-26T07:27:02.715Z,98412.72
2022-12-26T07:28:05.070Z,98415.09
2022-12-26T07:29:11.011Z,98418.34
2022-12-26T07:30:13.302Z,98425.06
2022-12-26T07:31:17.330Z,98433.56
2022-12-26T07:32:19.200Z,98435.06
2022-12-26T07:33:22.434Z,98441.66
2022-12-26T07:34:31.093Z,98440.59
2022-12-26T07:35:35.960Z,98445.50
2022-12-26T07:36:37.776Z,98443.47
2022-12-26T07:37:40.572Z,98441.22
2022-12-26T07:38:43.495Z,98447.06
2022-12-26T07:39:46.208Z,98436.50
2022-12-26T07:40:48.117Z,98423.34
2022-12-26T07:41:58.817Z,98416.13
2022-12-26T07:43:01.553Z,98403.88
2022-12-26T07:44:03.567Z,98404.59
2022-12-26T07:45:09.220Z,98401.78
2022-12-26T07:46:11.151Z,98417.25
2022-12-26T07:47:14.081Z,98424.84
2022-12-26T07:48:15.861Z,98422.88
2022-12-26T07:49:19.158Z,98425.00
2022-12-26T07:50:20.986Z,98427.09
2022-12-26T07:51:23.924Z,98424.94
2022-12-26T07:52:25.678Z,98426.41
2022-12-26T07:53:28.460Z,98417.38
2022-12-26T07:54:32.148Z,98418.91
2022-12-26T07:55:34.873Z,98425.13
2022-12-26T07:56:36.891Z,98424.25
2022-12-26T07:57:48.581Z,98427.88
2022-12-26T07:58:51.803Z,98426.44
2022-12-26T07:59:54.994Z,98432.63
2022-12-26T08:01:00.858Z,98430.31
2022-12-26T08:02:05.082Z,98417.75
2022-12-26T08:03:09.399Z,98424.03
2022-12-26T08:04:12.618Z,98421.69
2022-12-26T08:05:14.688Z,98419.41
2022-12-26T08:06:17.858Z,98414.56
2022-12-26T08:07:19.686Z,98411.44
2022-12-26T08:08:22.391Z,98412.63
2022-12-26T08:09:24.210Z,98419.97
2022-12-26T08:10:27.036Z,98414.56
2022-12-26T08:11:29.635Z,98412.44
2022-12-26T08:12:33.325Z,98417.31
2022-12-26T08:13:35.334Z,98418.63
2022-12-26T08:14:38.695Z,98416.38
2022-12-26T08:15:41.483Z,98423.81
2022-12-26T08:16:51.375Z,98422.75
2022-12-26T08:17:53.272Z,98424.41
2022-12-26T08:18:56.105Z,98431.16
2022-12-26T08:19:57.860Z,98429.03
2022-12-26T08:21:00.838Z,98428.81
2022-12-26T08:22:03.028Z,98427.63
2022-12-26T08:23:05.737Z,98437.91
2022-12-26T08:24:08.617Z,98431.53
2022-12-26T08:25:11.916Z,98430.25
2022-12-26T08:26:20.842Z,98428.84
2022-12-26T08:27:22.656Z,98424.94
2022-12-26T08:28:25.596Z,98421.16
2022-12-26T08:29:27.468Z,98420.09
2022-12-26T08:30:30.419Z,98430.94
2022-12-26T08:31:32.227Z,98429.09
2022-12-26T08:32:38.300Z,98419.25
2022-12-26T08:33:42.879Z,98413.00
2022-12-26T08:34:45.934Z,98416.31
2022-12-26T08:35:47.810Z,98427.31
2022-12-26T08:36:51.449Z,98431.41
2022-12-26T08:37:53.249Z,98444.19
2022-12-26T08:38:57.066Z,98451.03
2022-12-26T08:39:58.814Z,98461.44
2022-12-26T08:41:01.804Z,98458.63
2022-12-26T08:42:03.893Z,98469.72
2022-12-26T08:43:45.052Z,98461.78
2022-12-26T08:44:30.059Z,98461.56
2022-12-26T08:45:31.947Z,98464.03
2022-12-26T08:46:34.903Z,98456.81
2022-12-26T08:47:38.091Z,98455.66
2022-12-26T08:48:41.583Z,98457.16
2022-12-26T08:49:43.491Z,98459.53
2022-12-26T08:50:46.520Z,98458.59
2022-12-26T08:51:48.584Z,98455.97
2022-12-26T08:52:51.337Z,98450.66
2022-12-26T08:53:55.828Z,98437.53
2022-12-26T08:54:58.041Z,98433.88
2022-12-26T08:56:01.130Z,98429.25
2022-12-26T08:57:04.350Z,98433.50
2022-12-26T08:58:06.088Z,98436.81
2022-12-26T08:59:09.196Z,98433.13
2022-12-26T09:00:12.307Z,98426.75
2022-12-26T09:01:16.522Z,98426.63
2022-12-26T09:02:18.742Z,98425.56
2022-12-26T09:03:23.353Z,98432.28
2022-12-26T09:04:28.464Z,98430.31
2022-12-26T09:05:31.560Z,98440.44
2022-12-26T09:06:53.175Z,98435.16
2022-12-26T09:07:55.036Z,98447.06
2022-12-26T09:08:57.770Z,98438.22
2022-12-26T09:09:59.522Z,98442.19
2022-12-26T09:11:06.976Z,98441.13
2022-12-26T09:12:08.743Z,98448.69
2022-12-26T09:13:11.713Z,98439.81
2022-12-26T09:14:13.929Z,98445.47
2022-12-26T09:15:17.058Z,98434.09
2022-12-26T09:16:20.313Z,98437.44
2022-12-26T09:17:23.127Z,98442.50
2022-12-26T09:18:26.320Z,98435.38
2022-12-26T09:19:29.758Z,98434.31
2022-12-26T09:20:33.042Z,98432.53
2022-12-26T09:21:35.783Z,98431.44
2022-12-26T09:22:52.479Z,98422.72
2022-12-26T09:24:01.097Z,98426.81
2022-12-26T09:25:03.264Z,98418.88
2022-12-26T09:26:07.208Z,98421.47
2022-12-26T09:27:09.268Z,98423.03
2022-12-26T09:28:11.987Z,98424.66
2022-12-26T09:29:13.987Z,98415.91
2022-12-26T09:30:17.450Z,98411.50
2022-12-26T09:31:21.809Z,98414.13
2022-12-26T09:32:24.542Z,98423.59
2022-12-26T09:33:28.778Z,98419.09
2022-12-26T09:34:30.627Z,98422.50
2022-12-26T09:35:33.807Z,98422.28
2022-12-26T09:36:38.245Z,98436.13
2022-12-26T09:37:41.560Z,98427.47
2022-12-26T09:38:43.852Z,98432.56
2022-12-26T09:39:47.330Z,98430.78
2022-12-26T09:40:59.122Z,98433.38
2022-12-26T09:42:08.553Z,98427.22
2022-12-26T09:43:19.737Z,98421.03
2022-12-26T09:44:26.999Z,98428.84
2022-12-26T09:45:42.805Z,98430.53
2022-12-26T09:46:51.736Z,98441.78
2022-12-26T09:48:00.937Z,98426.97
2022-12-26T09:49:09.606Z,98438.06
2022-12-26T09:50:13.662Z,98430.13
2022-12-26T09:51:16.421Z,98444.81
2022-12-26T09:52:20.767Z,98439.34
2022-12-26T09:53:27.379Z,98454.72
2022-12-26T09:54:32.004Z,98453.63
2022-12-26T09:55:41.514Z,98450.09
2022-12-26T09:58:16.722Z,98447.59
2022-12-26T09:59:21.408Z,98441.72
2022-12-26T10:00:28.480Z,98448.81
2022-12-26T10:01:35.835Z,98450.59
2022-12-26T10:02:37.975Z,98454.16
2022-12-26T10:03:43.410Z,98456.88
2022-12-26T10:04:47.055Z,98450.84
2022-12-26T10:06:01.307Z,98443.16
2022-12-26T10:07:10.218Z,98453.84
2022-12-26T10:08:22.535Z,98444.63
2022-12-26T10:09:43.537Z,98441.44
2022-12-26T10:10:49.360Z,98438.13
2022-12-26T10:12:01.705Z,98428.81
2022-12-26T10:13:11.829Z,98425.34
2022-12-26T10:14:21.986Z,98420.03
2022-12-26T10:15:36.010Z,98419.09
2022-12-26T10:16:49.173Z,98422.50
2022-12-26T10:18:00.188Z,98412.09
2022-12-26T10:19:10.858Z,98418.84
2022-12-26T10:20:20.022Z,98402.25
2022-12-26T10:21:35.518Z,98402.13
2022-12-26T10:23:04.890Z,98396.78
2022-12-26T10:24:13.273Z,98394.19
2022-12-26T10:25:17.956Z,98394.06
2022-12-26T10:26:24.396Z,98395.72
2022-12-26T10:27:28.315Z,98392.00
2022-12-26T10:28:34.766Z,98389.16
2022-12-26T10:29:40.125Z,98400.28
2022-12-26T10:30:42.308Z,98398.38
2022-12-26T10:31:47.720Z,98399.06
2022-12-26T10:32:51.794Z,98411.13
2022-12-26T10:33:59.720Z,98416.25
2022-12-26T10:35:16.417Z,98422.13
2022-12-26T10:36:28.145Z,98412.41
2022-12-26T10:37:33.854Z,98409.78
2022-12-26T10:38:38.938Z,98401.88
2022-12-26T10:39:44.357Z,98401.75
2022-12-26T10:40:48.416Z,98398.16
2022-12-26T10:41:53.215Z,98392.81
2022-12-26T10:42:56.682Z,98392.81
2022-12-26T10:43:59.871Z,98399.72
2022-12-26T10:45:02.290Z,98388.31
2022-12-26T10:46:20.749Z,98388.06
2022-12-26T10:47:26.858Z,98384.75
2022-12-26T10:48:29.271Z,98385.44
2022-12-26T10:49:32.055Z,98395.88
2022-12-26T10:50:35.873Z,98372.31
2022-12-26T10:51:39.153Z,98388.63
2022-12-26T10:52:42.063Z,98383.28
2022-12-26T10:53:48.939Z,98386.59
2022-12-26T10:55:29.540Z,98384.00
2022-12-26T10:56:18.632Z,98375.22
2022-12-26T10:57:21.030Z,98374.81
2022-12-26T10:58:27.306Z,98363.28
2022-12-26T10:59:40.537Z,98362.91
2022-12-26T11:00:43.500Z,98364.44
2022-12-26T11:01:47.775Z,98364.97
2022-12-26T11:03:03.740Z,98362.69
2022-12-26T11:04:18.928Z,98371.91
2022-12-26T11:05:56.969Z,98363.13
2022-12-26T11:06:52.469Z,98367.38
2022-12-26T11:07:55.947Z,98363.94
2022-12-26T11:09:00.260Z,98363.13
2022-12-26T11:10:03.935Z,98362.16
2022-12-26T11:11:09.603Z,98368.88
2022-12-26T11:12:20.572Z,98374.91
2022-12-26T11:13:24.283Z,98373.25
2022-12-26T11:14:35.441Z,98375.75
2022-12-26T11:15:40.903Z,98384.41
2022-12-26T11:16:43.340Z,98375.75
2022-12-26T11:17:50.435Z,98376.59
2022-12-26T11:18:53.476Z,98381.91
2022-12-26T11:20:23.816Z,98382.72
2022-12-26T11:21:28.684Z,98373.25
2022-12-26T11:22:31.830Z,98374.09
2022-12-26T11:23:34.578Z,98367.09
2022-12-26T11:24:36.830Z,98365.34
2022-12-26T11:25:49.123Z,98366.16
2022-12-26T11:26:52.020Z,98359.97
2022-12-26T11:27:56.302Z,98352.72
2022-12-26T11:29:07.976Z,98355.19
2022-12-26T11:30:29.970Z,98360.41
2022-12-26T11:31:33.388Z,98362.19
2022-12-26T11:32:35.194Z,98363.97
2022-12-26T11:33:43.090Z,98365.19
2022-12-26T11:34:46.947Z,98360.81
2022-12-26T11:35:53.144Z,98366.97
2022-12-26T11:36:56.100Z,98360.22
2022-12-26T11:37:59.673Z,98361.19
2022-12-26T11:39:04.032Z,98359.69
2022-12-26T11:40:06.911Z,98352.94
2022-12-26T11:41:31.306Z,98352.25
2022-12-26T11:42:34.029Z,98357.72
2022-12-26T11:43:36.023Z,98363.09
2022-12-26T11:44:44.043Z,98362.13
2022-12-26T11:45:49.917Z,98351.84
2022-12-26T11:46:56.691Z,98360.34
2022-12-26T11:48:00.683Z,98361.06
2022-12-26T11:49:04.589Z,98356.25
2022-12-26T11:50:08.818Z,98360.13
2022-12-26T11:51:12.167Z,98350.94
2022-12-26T11:52:35.509Z,98343.53
2022-12-26T11:53:38.612Z,98343.25
2022-12-26T11:54:49.767Z,98344.78
2022-12-26T11:55:59.953Z,98338.47
2022-12-26T11:57:20.460Z,98339.28
2022-12-26T11:58:23.743Z,98339.44
2022-12-26T11:59:26.491Z,98337.63
2022-12-26T12:00:29.109Z,98339.28
2022-12-26T12:01:31.892Z,98333.94
2022-12-26T12:02:41.036Z,98334.63
2022-12-26T12:03:49.620Z,98328.44
2022-12-26T12:04:54.091Z,98337.66
2022-12-26T12:06:03.515Z,98334.91
2022-12-26T12:07:10.613Z,98343.44
2022-12-26T12:08:22.893Z,98343.97
2022-12-26T12:09:32.684Z,98342.06
2022-12-26T12:10:58.740Z,98342.59
2022-12-26T12:12:06.147Z,98340.00
2022-12-26T12:13:13.992Z,98327.66
2022-12-26T12:14:29.359Z,98324.91
2022-12-26T12:15:34.427Z,98323.69
2022-12-26T12:16:45.447Z,98318.31
2022-12-26T12:17:52.999Z,98332.19
2022-12-26T12:19:00.839Z,98326.97
2022-12-26T12:20:25.137Z,98312.13
2022-12-26T12:21:33.562Z,98320.69
2022-12-26T12:22:51.240Z,98317.34
2022-12-26T12:24:04.648Z,98321.34
2022-12-26T12:25:48.190Z,98314.25
2022-12-26T12:27:01.616Z,98313.28
2022-12-26T12:28:17.608Z,98306.66
2022-12-26T12:29:36.701Z,98307.91
2022-12-26T12:30:44.422Z,98306.78
2022-12-26T12:31:55.091Z,98304.16
2022-12-26T12:33:12.617Z,98309.63
2022-12-26T12:34:23.552Z,98311.97
2022-12-26T12:35:35.665Z,98310.84
2022-12-26T12:36:43.439Z,98306.03
2022-12-26T12:38:04.552Z,98294.75
2022-12-26T12:39:13.021Z,98308.63
2022-12-26T12:40:26.275Z,98308.78
2022-12-26T12:42:10.234Z,98302.88
2022-12-26T12:43:17.153Z,98313.19
2022-12-26T12:44:22.943Z,98317.91
2022-12-26T12:45:32.378Z,98326.00
2022-12-26T12:46:41.686Z,98321.06
2022-12-26T12:47:51.823Z,98314.59
2022-12-26T12:49:05.113Z,98309.53
2022-12-26T12:50:15.074Z,98316.00
2022-12-26T12:51:23.960Z,98320.66
2022-12-26T12:52:37.957Z,98307.91
2022-12-26T12:53:54.384Z,98312.31
2022-12-26T12:55:21.705Z,98318.59
2022-12-26T12:56:28.497Z,98314.34
2022-12-26T12:57:38.078Z,98300.47
2022-12-26T12:58:44.533Z,98307.50
2022-12-26T12:59:54.337Z,98315.19
2022-12-26T13:01:00.799Z,98316.00
2022-12-26T13:02:10.274Z,98315.19
2022-12-26T13:03:23.727Z,98313.38
2022-12-26T13:04:29.615Z,98308.97
2022-12-26T13:05:40.690Z,98312.41
2022-12-26T13:06:46.486Z,98315.03
2022-12-26T13:07:57.048Z,98303.91
2022-12-26T13:09:01.750Z,98307.19
2022-12-26T13:10:06.696Z,98311.47
2022-12-26T13:11:12.364Z,98307.19
2022-12-26T13:12:18.937Z,98308.88
2022-12-26T13:13:29.392Z,98305.28
2022-12-26T13:14:34.676Z,98308.56
2022-12-26T13:15:38.643Z,98303.50
2022-12-26T13:16:44.225Z,98303.34
2022-12-26T13:17:52.127Z,98309.38
2022-12-26T13:18:57.387Z,98316.13
2022-12-26T13:20:03.098Z,98314.34
2022-12-26T13:21:07.504Z,98305.53
2022-12-26T13:22:14.187Z,98306.25
2022-12-26T13:23:37.864Z,98313.22